sensor_id;sensor_type;location;lat;lon;timestamp;temperature;humidity
79571;DHT22;69034;49.444;7.758;2024-03-02T00:01:00;8.30;57.60
79571;DHT22;69034;49.444;7.758;2024-03-02T00:05:01;8.20;57.60
79571;DHT22;69034;49.444;7.758;2024-03-02T00:09:02;8.20;57.70
79571;DHT22;69034;49.444;7.758;2024-03-02T00:13:03;8.10;57.60
79571;DHT22;69034;49.444;7.758;2024-03-02T00:17:04;8.00;57.70
79571;DHT22;69034;49.444;7.758;2024-03-02T00:21:06;8.00;57.70
79571;DHT22;69034;49.444;7.758;2024-03-02T00:25:10;7.90;57.70
79571;DHT22;69034;49.444;7.758;2024-03-02T00:29:11;7.90;57.80
79571;DHT22;69034;49.444;7.758;2024-03-02T00:33:15;7.80;57.90
79571;DHT22;69034;49.444;7.758;2024-03-02T00:37:16;7.80;57.90
79571;DHT22;69034;49.444;7.758;2024-03-02T00:41:30;7.70;57.90
79571;DHT22;69034;49.444;7.758;2024-03-02T00:45:31;7.70;57.90
79571;DHT22;69034;49.444;7.758;2024-03-02T00:49:32;7.60;57.90
79571;DHT22;69034;49.444;7.758;2024-03-02T00:53:33;7.60;58.00
79571;DHT22;69034;49.444;7.758;2024-03-02T00:57:34;7.50;58.10
79571;DHT22;69034;49.444;7.758;2024-03-02T01:01:35;7.50;58.20
79571;DHT22;69034;49.444;7.758;2024-03-02T01:05:35;7.40;58.30
79571;DHT22;69034;49.444;7.758;2024-03-02T01:09:36;7.40;58.20
79571;DHT22;69034;49.444;7.758;2024-03-02T01:13:37;7.40;58.20
79571;DHT22;69034;49.444;7.758;2024-03-02T01:17:37;7.30;58.30
79571;DHT22;69034;49.444;7.758;2024-03-02T01:21:38;7.30;58.30
79571;DHT22;69034;49.444;7.758;2024-03-02T01:25:39;7.20;58.30
79571;DHT22;69034;49.444;7.758;2024-03-02T01:29:40;7.20;58.40
79571;DHT22;69034;49.444;7.758;2024-03-02T01:33:40;7.10;58.40
79571;DHT22;69034;49.444;7.758;2024-03-02T01:37:41;7.10;58.50
79571;DHT22;69034;49.444;7.758;2024-03-02T01:41:42;7.10;58.50
79571;DHT22;69034;49.444;7.758;2024-03-02T01:45:45;7.10;58.60
79571;DHT22;69034;49.444;7.758;2024-03-02T01:49:46;7.00;58.50
79571;DHT22;69034;49.444;7.758;2024-03-02T01:53:47;7.00;58.50
79571;DHT22;69034;49.444;7.758;2024-03-02T01:57:49;6.90;58.60
79571;DHT22;69034;49.444;7.758;2024-03-02T02:01:52;6.90;58.70
79571;DHT22;69034;49.444;7.758;2024-03-02T02:05:52;6.90;58.70
79571;DHT22;69034;49.444;7.758;2024-03-02T02:09:53;6.80;58.70
79571;DHT22;69034;49.444;7.758;2024-03-02T02:13:54;6.80;58.80
79571;DHT22;69034;49.444;7.758;2024-03-02T02:17:56;6.80;58.80
79571;DHT22;69034;49.444;7.758;2024-03-02T02:21:57;6.70;58.80
79571;DHT22;69034;49.444;7.758;2024-03-02T02:25:58;6.70;58.80
79571;DHT22;69034;49.444;7.758;2024-03-02T02:29:59;6.70;58.90
79571;DHT22;69034;49.444;7.758;2024-03-02T02:34:01;6.60;59.00
79571;DHT22;69034;49.444;7.758;2024-03-02T02:38:02;6.60;59.10
79571;DHT22;69034;49.444;7.758;2024-03-02T02:42:03;6.60;59.00
79571;DHT22;69034;49.444;7.758;2024-03-02T02:46:04;6.50;59.10
79571;DHT22;69034;49.444;7.758;2024-03-02T02:50:07;6.50;59.10
79571;DHT22;69034;49.444;7.758;2024-03-02T02:54:08;6.50;59.10
79571;DHT22;69034;49.444;7.758;2024-03-02T02:58:09;6.50;59.10
79571;DHT22;69034;49.444;7.758;2024-03-02T03:02:09;6.50;59.20
79571;DHT22;69034;49.444;7.758;2024-03-02T03:06:10;6.50;59.20
79571;DHT22;69034;49.444;7.758;2024-03-02T03:10:11;6.40;59.20
79571;DHT22;69034;49.444;7.758;2024-03-02T03:14:12;6.40;59.10
79571;DHT22;69034;49.444;7.758;2024-03-02T03:18:13;6.40;59.20
79571;DHT22;69034;49.444;7.758;2024-03-02T03:22:13;6.40;59.30
79571;DHT22;69034;49.444;7.758;2024-03-02T03:26:14;6.40;59.20
79571;DHT22;69034;49.444;7.758;2024-03-02T03:30:15;6.30;59.30
79571;DHT22;69034;49.444;7.758;2024-03-02T03:34:15;6.30;59.30
79571;DHT22;69034;49.444;7.758;2024-03-02T03:38:16;6.30;59.30
79571;DHT22;69034;49.444;7.758;2024-03-02T03:42:17;6.30;59.30
79571;DHT22;69034;49.444;7.758;2024-03-02T03:46:17;6.20;59.40
79571;DHT22;69034;49.444;7.758;2024-03-02T03:50:18;6.20;59.40
79571;DHT22;69034;49.444;7.758;2024-03-02T03:54:18;6.20;59.40
79571;DHT22;69034;49.444;7.758;2024-03-02T03:58:19;6.10;59.50
79571;DHT22;69034;49.444;7.758;2024-03-02T04:02:21;6.10;59.50
79571;DHT22;69034;49.444;7.758;2024-03-02T04:06:21;6.10;59.40
79571;DHT22;69034;49.444;7.758;2024-03-02T04:10:22;6.10;59.50
79571;DHT22;69034;49.444;7.758;2024-03-02T04:14:22;6.10;59.40
79571;DHT22;69034;49.444;7.758;2024-03-02T04:18:23;6.10;59.50
79571;DHT22;69034;49.444;7.758;2024-03-02T04:22:24;6.10;59.50
79571;DHT22;69034;49.444;7.758;2024-03-02T04:26:25;6.10;59.60
79571;DHT22;69034;49.444;7.758;2024-03-02T04:30:25;6.10;59.50
79571;DHT22;69034;49.444;7.758;2024-03-02T04:34:27;6.10;59.60
79571;DHT22;69034;49.444;7.758;2024-03-02T04:38:27;6.10;59.60
79571;DHT22;69034;49.444;7.758;2024-03-02T04:42:29;6.10;59.60
79571;DHT22;69034;49.444;7.758;2024-03-02T04:46:29;6.20;59.50
79571;DHT22;69034;49.444;7.758;2024-03-02T04:50:31;6.20;59.60
79571;DHT22;69034;49.444;7.758;2024-03-02T04:54:32;6.20;59.60
79571;DHT22;69034;49.444;7.758;2024-03-02T04:58:33;6.20;59.70
79571;DHT22;69034;49.444;7.758;2024-03-02T05:02:33;6.20;59.70
79571;DHT22;69034;49.444;7.758;2024-03-02T05:06:34;6.30;59.80
79571;DHT22;69034;49.444;7.758;2024-03-02T05:10:34;6.30;59.60
79571;DHT22;69034;49.444;7.758;2024-03-02T05:14:37;6.30;59.80
79571;DHT22;69034;49.444;7.758;2024-03-02T05:18:38;6.30;59.70
79571;DHT22;69034;49.444;7.758;2024-03-02T05:22:39;6.40;59.80
79571;DHT22;69034;49.444;7.758;2024-03-02T05:26:40;6.40;59.70
79571;DHT22;69034;49.444;7.758;2024-03-02T05:30:42;6.50;59.60
79571;DHT22;69034;49.444;7.758;2024-03-02T05:34:42;6.50;59.70
79571;DHT22;69034;49.444;7.758;2024-03-02T05:38:43;6.60;59.60
79571;DHT22;69034;49.444;7.758;2024-03-02T05:42:43;6.60;59.60
79571;DHT22;69034;49.444;7.758;2024-03-02T05:46:44;6.70;59.70
79571;DHT22;69034;49.444;7.758;2024-03-02T05:50:45;6.70;59.70
79571;DHT22;69034;49.444;7.758;2024-03-02T05:54:46;6.70;59.90
79571;DHT22;69034;49.444;7.758;2024-03-02T05:58:46;6.80;59.90
79571;DHT22;69034;49.444;7.758;2024-03-02T06:03:05;6.80;59.90
79571;DHT22;69034;49.444;7.758;2024-03-02T06:07:07;6.80;59.90
79571;DHT22;69034;49.444;7.758;2024-03-02T06:11:08;6.90;59.90
79571;DHT22;69034;49.444;7.758;2024-03-02T06:15:09;6.90;59.90
79571;DHT22;69034;49.444;7.758;2024-03-02T06:19:10;6.90;59.80
79571;DHT22;69034;49.444;7.758;2024-03-02T06:23:10;7.00;59.90
79571;DHT22;69034;49.444;7.758;2024-03-02T06:27:11;7.00;59.90
79571;DHT22;69034;49.444;7.758;2024-03-02T06:31:12;7.10;59.80
79571;DHT22;69034;49.444;7.758;2024-03-02T06:35:13;7.10;59.80
79571;DHT22;69034;49.444;7.758;2024-03-02T06:39:13;7.20;59.90
79571;DHT22;69034;49.444;7.758;2024-03-02T06:43:14;7.20;59.80
79571;DHT22;69034;49.444;7.758;2024-03-02T06:47:15;7.30;59.70
79571;DHT22;69034;49.444;7.758;2024-03-02T06:51:17;7.40;59.70
79571;DHT22;69034;49.444;7.758;2024-03-02T06:55:17;7.60;59.60
79571;DHT22;69034;49.444;7.758;2024-03-02T06:59:18;7.70;59.50
79571;DHT22;69034;49.444;7.758;2024-03-02T07:03:20;7.80;59.50
79571;DHT22;69034;49.444;7.758;2024-03-02T07:07:20;7.90;59.50
79571;DHT22;69034;49.444;7.758;2024-03-02T07:11:21;8.00;59.40
79571;DHT22;69034;49.444;7.758;2024-03-02T07:15:21;8.20;59.30
79571;DHT22;69034;49.444;7.758;2024-03-02T07:19:28;8.20;59.20
79571;DHT22;69034;49.444;7.758;2024-03-02T07:23:28;8.30;59.20
79571;DHT22;69034;49.444;7.758;2024-03-02T07:27:31;8.50;59.00
79571;DHT22;69034;49.444;7.758;2024-03-02T07:31:32;8.60;58.90
79571;DHT22;69034;49.444;7.758;2024-03-02T07:35:32;8.90;58.70
79571;DHT22;69034;49.444;7.758;2024-03-02T07:39:34;9.00;58.60
79571;DHT22;69034;49.444;7.758;2024-03-02T07:43:35;9.10;58.50
79571;DHT22;69034;49.444;7.758;2024-03-02T07:47:36;9.30;58.30
79571;DHT22;69034;49.444;7.758;2024-03-02T07:51:36;9.50;58.20
79571;DHT22;69034;49.444;7.758;2024-03-02T07:55:37;9.70;58.00
79571;DHT22;69034;49.444;7.758;2024-03-02T07:59:38;9.90;58.00
79571;DHT22;69034;49.444;7.758;2024-03-02T08:03:39;10.00;57.90
79571;DHT22;69034;49.444;7.758;2024-03-02T08:07:40;10.10;58.00
79571;DHT22;69034;49.444;7.758;2024-03-02T08:11:41;10.40;57.70
79571;DHT22;69034;49.444;7.758;2024-03-02T08:15:42;10.50;57.70
79571;DHT22;69034;49.444;7.758;2024-03-02T08:19:44;10.70;57.50
79571;DHT22;69034;49.444;7.758;2024-03-02T08:23:45;10.90;57.10
79571;DHT22;69034;49.444;7.758;2024-03-02T08:27:47;11.30;56.70
79571;DHT22;69034;49.444;7.758;2024-03-02T08:31:48;11.50;56.60
79571;DHT22;69034;49.444;7.758;2024-03-02T08:35:49;11.70;56.40
79571;DHT22;69034;49.444;7.758;2024-03-02T08:39:50;11.90;56.20
79571;DHT22;69034;49.444;7.758;2024-03-02T08:43:51;12.00;56.30
79571;DHT22;69034;49.444;7.758;2024-03-02T08:47:51;12.10;56.40
79571;DHT22;69034;49.444;7.758;2024-03-02T08:51:53;12.20;56.30
79571;DHT22;69034;49.444;7.758;2024-03-02T08:55:56;12.40;56.10
79571;DHT22;69034;49.444;7.758;2024-03-02T08:59:58;12.50;55.90
79571;DHT22;69034;49.444;7.758;2024-03-02T09:04:01;12.80;55.70
79571;DHT22;69034;49.444;7.758;2024-03-02T09:08:01;13.00;55.60
79571;DHT22;69034;49.444;7.758;2024-03-02T09:12:04;13.40;55.20
79571;DHT22;69034;49.444;7.758;2024-03-02T09:16:05;13.80;54.80
79571;DHT22;69034;49.444;7.758;2024-03-02T09:20:06;14.10;54.50
79571;DHT22;69034;49.444;7.758;2024-03-02T09:24:07;14.50;54.10
79571;DHT22;69034;49.444;7.758;2024-03-02T09:28:07;14.90;53.70
79571;DHT22;69034;49.444;7.758;2024-03-02T09:32:12;15.30;53.40
79571;DHT22;69034;49.444;7.758;2024-03-02T09:36:21;15.70;53.00
79571;DHT22;69034;49.444;7.758;2024-03-02T09:40:22;15.90;52.80
79571;DHT22;69034;49.444;7.758;2024-03-02T09:44:23;16.10;52.60
79571;DHT22;69034;49.444;7.758;2024-03-02T09:48:25;16.30;52.20
79571;DHT22;69034;49.444;7.758;2024-03-02T09:52:26;16.50;52.00
79571;DHT22;69034;49.444;7.758;2024-03-02T09:56:27;16.70;51.70
79571;DHT22;69034;49.444;7.758;2024-03-02T10:00:27;17.00;51.30
79571;DHT22;69034;49.444;7.758;2024-03-02T10:04:29;17.30;51.00
79571;DHT22;69034;49.444;7.758;2024-03-02T10:08:43;17.70;50.60
79571;DHT22;69034;49.444;7.758;2024-03-02T10:12:48;18.10;50.10
79571;DHT22;69034;49.444;7.758;2024-03-02T10:16:49;18.50;49.70
79571;DHT22;69034;49.444;7.758;2024-03-02T10:20:49;18.80;49.10
79571;DHT22;69034;49.444;7.758;2024-03-02T10:24:50;19.20;48.80
79571;DHT22;69034;49.444;7.758;2024-03-02T10:28:51;19.50;48.40
79571;DHT22;69034;49.444;7.758;2024-03-02T10:33:03;19.90;48.00
79571;DHT22;69034;49.444;7.758;2024-03-02T10:37:05;20.20;47.60
79571;DHT22;69034;49.444;7.758;2024-03-02T10:41:07;20.40;47.10
79571;DHT22;69034;49.444;7.758;2024-03-02T10:45:10;20.80;46.60
79571;DHT22;69034;49.444;7.758;2024-03-02T10:49:12;21.10;46.10
79571;DHT22;69034;49.444;7.758;2024-03-02T10:53:12;21.50;45.60
79571;DHT22;69034;49.444;7.758;2024-03-02T10:57:14;21.90;45.40
79571;DHT22;69034;49.444;7.758;2024-03-02T11:01:17;22.50;44.80
79571;DHT22;69034;49.444;7.758;2024-03-02T11:05:38;22.90;44.40
79571;DHT22;69034;49.444;7.758;2024-03-02T11:09:48;23.30;43.90
79571;DHT22;69034;49.444;7.758;2024-03-02T11:13:50;24.20;43.00
79571;DHT22;69034;49.444;7.758;2024-03-02T11:17:53;24.70;42.60
79571;DHT22;69034;49.444;7.758;2024-03-02T11:21:54;25.50;42.50
79571;DHT22;69034;49.444;7.758;2024-03-02T11:26:16;27.00;41.00
79571;DHT22;69034;49.444;7.758;2024-03-02T11:34:36;29.40;38.70
79571;DHT22;69034;49.444;7.758;2024-03-02T11:38:43;29.60;38.30
79571;DHT22;69034;49.444;7.758;2024-03-02T11:42:47;29.50;37.70
79571;DHT22;69034;49.444;7.758;2024-03-02T11:47:00;29.00;38.00
79571;DHT22;69034;49.444;7.758;2024-03-02T11:51:01;29.50;37.00
79571;DHT22;69034;49.444;7.758;2024-03-02T11:55:02;29.40;37.40
79571;DHT22;69034;49.444;7.758;2024-03-02T11:59:05;28.90;36.60
79571;DHT22;69034;49.444;7.758;2024-03-02T12:03:08;28.40;36.50
79571;DHT22;69034;49.444;7.758;2024-03-02T12:07:09;27.90;36.10
79571;DHT22;69034;49.444;7.758;2024-03-02T12:11:13;27.20;36.00
79571;DHT22;69034;49.444;7.758;2024-03-02T12:15:14;26.70;36.00
79571;DHT22;69034;49.444;7.758;2024-03-02T12:19:15;26.40;36.20
79571;DHT22;69034;49.444;7.758;2024-03-02T12:23:18;26.40;36.30
79571;DHT22;69034;49.444;7.758;2024-03-02T12:27:19;26.60;36.40
79571;DHT22;69034;49.444;7.758;2024-03-02T12:31:21;26.50;36.60
79571;DHT22;69034;49.444;7.758;2024-03-02T12:35:24;26.70;36.50
79571;DHT22;69034;49.444;7.758;2024-03-02T12:39:25;27.10;37.20
79571;DHT22;69034;49.444;7.758;2024-03-02T12:43:31;27.90;36.20
79571;DHT22;69034;49.444;7.758;2024-03-02T12:47:33;28.40;35.30
79571;DHT22;69034;49.444;7.758;2024-03-02T12:51:33;29.00;35.10
79571;DHT22;69034;49.444;7.758;2024-03-02T12:55:35;29.80;34.10
79571;DHT22;69034;49.444;7.758;2024-03-02T12:59:36;30.50;34.00
79571;DHT22;69034;49.444;7.758;2024-03-02T13:03:41;31.20;33.50
79571;DHT22;69034;49.444;7.758;2024-03-02T13:07:41;31.60;32.20
79571;DHT22;69034;49.444;7.758;2024-03-02T13:11:43;31.80;32.70
79571;DHT22;69034;49.444;7.758;2024-03-02T13:15:44;32.50;32.40
79571;DHT22;69034;49.444;7.758;2024-03-02T13:19:58;33.00;31.70
79571;DHT22;69034;49.444;7.758;2024-03-02T13:23:59;33.50;30.90
79571;DHT22;69034;49.444;7.758;2024-03-02T13:28:00;33.00;31.60
79571;DHT22;69034;49.444;7.758;2024-03-02T13:32:01;34.00;30.70
79571;DHT22;69034;49.444;7.758;2024-03-02T13:36:02;34.80;29.70
79571;DHT22;69034;49.444;7.758;2024-03-02T13:40:03;35.70;29.10
79571;DHT22;69034;49.444;7.758;2024-03-02T13:44:05;34.50;29.60
79571;DHT22;69034;49.444;7.758;2024-03-02T13:48:06;32.70;30.20
79571;DHT22;69034;49.444;7.758;2024-03-02T13:52:07;31.10;30.90
79571;DHT22;69034;49.444;7.758;2024-03-02T13:56:11;30.20;31.20
79571;DHT22;69034;49.444;7.758;2024-03-02T14:00:12;29.50;31.70
79571;DHT22;69034;49.444;7.758;2024-03-02T14:04:13;29.00;31.30
79571;DHT22;69034;49.444;7.758;2024-03-02T14:08:14;28.50;31.00
79571;DHT22;69034;49.444;7.758;2024-03-02T14:12:14;28.10;31.00
79571;DHT22;69034;49.444;7.758;2024-03-02T14:16:15;28.00;30.90
79571;DHT22;69034;49.444;7.758;2024-03-02T14:20:16;28.00;30.50
79571;DHT22;69034;49.444;7.758;2024-03-02T14:24:22;28.50;30.10
79571;DHT22;69034;49.444;7.758;2024-03-02T14:28:26;28.00;30.40
79571;DHT22;69034;49.444;7.758;2024-03-02T14:32:26;27.40;30.20
79571;DHT22;69034;49.444;7.758;2024-03-02T14:36:27;26.60;30.50
79571;DHT22;69034;49.444;7.758;2024-03-02T14:40:28;26.00;31.00
79571;DHT22;69034;49.444;7.758;2024-03-02T14:44:30;25.50;31.10
79571;DHT22;69034;49.444;7.758;2024-03-02T14:48:31;25.20;31.10
79571;DHT22;69034;49.444;7.758;2024-03-02T14:52:33;25.00;31.20
79571;DHT22;69034;49.444;7.758;2024-03-02T14:56:34;25.30;31.20
79571;DHT22;69034;49.444;7.758;2024-03-02T15:00:34;25.10;31.60
79571;DHT22;69034;49.444;7.758;2024-03-02T15:04:35;24.90;31.90
79571;DHT22;69034;49.444;7.758;2024-03-02T15:08:36;24.60;32.30
79571;DHT22;69034;49.444;7.758;2024-03-02T15:12:37;24.40;32.50
79571;DHT22;69034;49.444;7.758;2024-03-02T15:16:38;24.10;32.70
79571;DHT22;69034;49.444;7.758;2024-03-02T15:20:38;23.90;33.00
79571;DHT22;69034;49.444;7.758;2024-03-02T15:24:39;23.50;33.30
79571;DHT22;69034;49.444;7.758;2024-03-02T15:28:40;23.10;33.70
79571;DHT22;69034;49.444;7.758;2024-03-02T15:32:40;22.70;34.10
79571;DHT22;69034;49.444;7.758;2024-03-02T15:36:42;22.40;34.70
79571;DHT22;69034;49.444;7.758;2024-03-02T15:40:44;22.10;35.00
79571;DHT22;69034;49.444;7.758;2024-03-02T15:44:45;21.70;35.40
79571;DHT22;69034;49.444;7.758;2024-03-02T15:48:46;21.40;35.80
79571;DHT22;69034;49.444;7.758;2024-03-02T15:52:46;21.00;36.00
79571;DHT22;69034;49.444;7.758;2024-03-02T15:56:48;20.70;36.30
79571;DHT22;69034;49.444;7.758;2024-03-02T16:00:48;20.60;36.60
79571;DHT22;69034;49.444;7.758;2024-03-02T16:04:49;20.40;36.80
79571;DHT22;69034;49.444;7.758;2024-03-02T16:08:50;20.10;37.00
79571;DHT22;69034;49.444;7.758;2024-03-02T16:12:51;19.90;37.30
79571;DHT22;69034;49.444;7.758;2024-03-02T16:16:53;19.80;37.80
79571;DHT22;69034;49.444;7.758;2024-03-02T16:20:54;19.70;38.30
79571;DHT22;69034;49.444;7.758;2024-03-02T16:24:55;19.60;38.70
79571;DHT22;69034;49.444;7.758;2024-03-02T16:28:56;19.50;38.90
79571;DHT22;69034;49.444;7.758;2024-03-02T16:32:56;19.50;39.20
79571;DHT22;69034;49.444;7.758;2024-03-02T16:36:57;19.40;39.60
79571;DHT22;69034;49.444;7.758;2024-03-02T16:40:59;19.30;39.90
79571;DHT22;69034;49.444;7.758;2024-03-02T16:44:59;19.10;40.20
79571;DHT22;69034;49.444;7.758;2024-03-02T16:49:00;19.00;40.50
79571;DHT22;69034;49.444;7.758;2024-03-02T16:53:01;18.90;40.70
79571;DHT22;69034;49.444;7.758;2024-03-02T16:57:01;18.80;41.00
79571;DHT22;69034;49.444;7.758;2024-03-02T17:01:02;18.70;41.30
79571;DHT22;69034;49.444;7.758;2024-03-02T17:05:03;18.60;41.50
79571;DHT22;69034;49.444;7.758;2024-03-02T17:09:04;18.50;41.70
79571;DHT22;69034;49.444;7.758;2024-03-02T17:13:05;18.30;42.00
79571;DHT22;69034;49.444;7.758;2024-03-02T17:17:06;18.10;42.20
79571;DHT22;69034;49.444;7.758;2024-03-02T17:21:07;17.80;42.50
79571;DHT22;69034;49.444;7.758;2024-03-02T17:25:08;17.60;42.70
79571;DHT22;69034;49.444;7.758;2024-03-02T17:29:08;17.30;43.00
79571;DHT22;69034;49.444;7.758;2024-03-02T17:33:09;17.10;43.30
79571;DHT22;69034;49.444;7.758;2024-03-02T17:37:10;16.90;43.60
79571;DHT22;69034;49.444;7.758;2024-03-02T17:41:10;16.80;43.80
79571;DHT22;69034;49.444;7.758;2024-03-02T17:45:11;16.60;43.90
79571;DHT22;69034;49.444;7.758;2024-03-02T17:49:12;16.50;44.20
79571;DHT22;69034;49.444;7.758;2024-03-02T17:53:13;16.30;44.50
79571;DHT22;69034;49.444;7.758;2024-03-02T17:57:14;16.20;44.70
79571;DHT22;69034;49.444;7.758;2024-03-02T18:01:15;16.00;44.80
79571;DHT22;69034;49.444;7.758;2024-03-02T18:05:16;15.90;45.00
79571;DHT22;69034;49.444;7.758;2024-03-02T18:09:17;15.80;45.20
79571;DHT22;69034;49.444;7.758;2024-03-02T18:13:17;15.70;45.40
79571;DHT22;69034;49.444;7.758;2024-03-02T18:17:18;15.60;45.50
79571;DHT22;69034;49.444;7.758;2024-03-02T18:21:19;15.50;45.80
79571;DHT22;69034;49.444;7.758;2024-03-02T18:25:19;15.40;45.90
79571;DHT22;69034;49.444;7.758;2024-03-02T18:29:20;15.30;45.90
79571;DHT22;69034;49.444;7.758;2024-03-02T18:33:21;15.20;46.00
79571;DHT22;69034;49.444;7.758;2024-03-02T18:37:22;15.10;46.20
79571;DHT22;69034;49.444;7.758;2024-03-02T18:41:23;15.00;46.30
79571;DHT22;69034;49.444;7.758;2024-03-02T18:45:25;15.00;46.50
79571;DHT22;69034;49.444;7.758;2024-03-02T18:49:26;14.90;46.60
79571;DHT22;69034;49.444;7.758;2024-03-02T18:53:26;14.80;46.80
79571;DHT22;69034;49.444;7.758;2024-03-02T18:57:27;14.80;46.90
79571;DHT22;69034;49.444;7.758;2024-03-02T19:01:28;14.70;47.00
79571;DHT22;69034;49.444;7.758;2024-03-02T19:05:29;14.70;47.00
79571;DHT22;69034;49.444;7.758;2024-03-02T19:09:30;14.60;47.20
79571;DHT22;69034;49.444;7.758;2024-03-02T19:13:30;14.60;47.40
79571;DHT22;69034;49.444;7.758;2024-03-02T19:17:32;14.50;47.50
79571;DHT22;69034;49.444;7.758;2024-03-02T19:21:32;14.40;47.60
79571;DHT22;69034;49.444;7.758;2024-03-02T19:25:33;14.40;47.60
79571;DHT22;69034;49.444;7.758;2024-03-02T19:29:34;14.40;48.10
79571;DHT22;69034;49.444;7.758;2024-03-02T19:33:36;14.50;48.60
79571;DHT22;69034;49.444;7.758;2024-03-02T19:37:36;14.60;48.80
79571;DHT22;69034;49.444;7.758;2024-03-02T19:41:37;14.90;49.40
79571;DHT22;69034;49.444;7.758;2024-03-02T19:45:38;15.00;49.50
79571;DHT22;69034;49.444;7.758;2024-03-02T19:49:39;15.00;49.70
79571;DHT22;69034;49.444;7.758;2024-03-02T19:53:39;15.00;49.70
79571;DHT22;69034;49.444;7.758;2024-03-02T19:57:40;14.90;49.80
79571;DHT22;69034;49.444;7.758;2024-03-02T20:01:47;14.90;49.70
79571;DHT22;69034;49.444;7.758;2024-03-02T20:05:48;14.80;49.90
79571;DHT22;69034;49.444;7.758;2024-03-02T20:09:48;14.80;49.80
79571;DHT22;69034;49.444;7.758;2024-03-02T20:13:50;14.80;50.00
79571;DHT22;69034;49.444;7.758;2024-03-02T20:17:54;15.00;51.20
79571;DHT22;69034;49.444;7.758;2024-03-02T20:21:55;15.00;51.30
79571;DHT22;69034;49.444;7.758;2024-03-02T20:25:56;14.90;51.30
79571;DHT22;69034;49.444;7.758;2024-03-02T20:29:58;14.80;51.20
79571;DHT22;69034;49.444;7.758;2024-03-02T20:33:58;14.60;51.10
79571;DHT22;69034;49.444;7.758;2024-03-02T20:38:01;14.40;51.20
79571;DHT22;69034;49.444;7.758;2024-03-02T20:42:01;14.30;51.10
79571;DHT22;69034;49.444;7.758;2024-03-02T20:46:03;14.20;52.10
79571;DHT22;69034;49.444;7.758;2024-03-02T20:50:07;14.40;51.70
79571;DHT22;69034;49.444;7.758;2024-03-02T20:54:09;14.30;51.70
79571;DHT22;69034;49.444;7.758;2024-03-02T20:58:11;14.10;51.80
79571;DHT22;69034;49.444;7.758;2024-03-02T21:02:14;14.00;51.70
79571;DHT22;69034;49.444;7.758;2024-03-02T21:06:14;14.00;51.70
79571;DHT22;69034;49.444;7.758;2024-03-02T21:10:15;13.90;51.80
79571;DHT22;69034;49.444;7.758;2024-03-02T21:14:16;13.80;51.70
79571;DHT22;69034;49.444;7.758;2024-03-02T21:18:17;13.70;51.70
79571;DHT22;69034;49.444;7.758;2024-03-02T21:22:18;13.70;51.70
79571;DHT22;69034;49.444;7.758;2024-03-02T21:26:22;13.80;52.60
79571;DHT22;69034;49.444;7.758;2024-03-02T21:30:25;13.90;52.30
79571;DHT22;69034;49.444;7.758;2024-03-02T21:34:26;13.80;52.30
79571;DHT22;69034;49.444;7.758;2024-03-02T21:38:28;13.70;52.50
79571;DHT22;69034;49.444;7.758;2024-03-02T21:42:31;13.60;52.50
79571;DHT22;69034;49.444;7.758;2024-03-02T21:46:31;13.80;54.40
79571;DHT22;69034;49.444;7.758;2024-03-02T21:50:32;14.20;53.60
79571;DHT22;69034;49.444;7.758;2024-03-02T21:54:33;14.00;53.60
79571;DHT22;69034;49.444;7.758;2024-03-02T21:58:34;13.80;53.80
79571;DHT22;69034;49.444;7.758;2024-03-02T22:02:35;13.70;53.90
79571;DHT22;69034;49.444;7.758;2024-03-02T22:06:36;13.60;53.90
79571;DHT22;69034;49.444;7.758;2024-03-02T22:10:36;13.50;53.90
79571;DHT22;69034;49.444;7.758;2024-03-02T22:14:40;13.40;53.90
79571;DHT22;69034;49.444;7.758;2024-03-02T22:18:40;13.50;54.40
79571;DHT22;69034;49.444;7.758;2024-03-02T22:22:41;13.50;54.00
79571;DHT22;69034;49.444;7.758;2024-03-02T22:26:42;13.50;54.10
79571;DHT22;69034;49.444;7.758;2024-03-02T22:30:44;13.30;54.20
79571;DHT22;69034;49.444;7.758;2024-03-02T22:34:44;13.30;54.30
79571;DHT22;69034;49.444;7.758;2024-03-02T22:38:45;13.20;54.30
79571;DHT22;69034;49.444;7.758;2024-03-02T22:42:46;13.10;54.40
79571;DHT22;69034;49.444;7.758;2024-03-02T22:46:47;13.00;54.40
79571;DHT22;69034;49.444;7.758;2024-03-02T22:50:47;12.90;54.50
79571;DHT22;69034;49.444;7.758;2024-03-02T22:54:48;12.80;54.50
79571;DHT22;69034;49.444;7.758;2024-03-02T22:58:49;12.80;54.50
79571;DHT22;69034;49.444;7.758;2024-03-02T23:02:49;12.70;54.90
79571;DHT22;69034;49.444;7.758;2024-03-02T23:06:51;12.80;55.30
79571;DHT22;69034;49.444;7.758;2024-03-02T23:10:52;12.90;55.20
79571;DHT22;69034;49.444;7.758;2024-03-02T23:14:53;13.10;55.20
79571;DHT22;69034;49.444;7.758;2024-03-02T23:18:55;13.20;55.10
79571;DHT22;69034;49.444;7.758;2024-03-02T23:22:56;13.20;54.90
79571;DHT22;69034;49.444;7.758;2024-03-02T23:26:57;13.20;55.00
79571;DHT22;69034;49.444;7.758;2024-03-02T23:30:57;13.30;55.00
79571;DHT22;69034;49.444;7.758;2024-03-02T23:34:59;13.30;55.10
79571;DHT22;69034;49.444;7.758;2024-03-02T23:39:00;13.30;55.10
79571;DHT22;69034;49.444;7.758;2024-03-02T23:43:04;13.30;55.20
79571;DHT22;69034;49.444;7.758;2024-03-02T23:47:05;13.30;55.20
79571;DHT22;69034;49.444;7.758;2024-03-02T23:51:06;13.20;55.20
79571;DHT22;69034;49.444;7.758;2024-03-02T23:55:08;13.20;55.20
79571;DHT22;69034;49.444;7.758;2024-03-02T23:59:08;13.10;55.20
